Time;durP1;ratioP1;P1;durP2;ratioP2;P2;SDS_P1;SDS_P2;PMS_P1;PMS_P2;Temp;Humidity;BMP_temperature;BMP_pressure;BME280_temperature;BME280_humidity;BME280_pressure;Samples;Min_cycle;Max_cycle;Signal;HPM_P1;HPM_P2
2021/10/24 00:00:15;;;;;;;3.03;1.73;;;12.50;99.90;;;;;;5002079;28;20210;-86
2021/10/24 00:02:49;;;;;;;3.13;1.80;;;12.50;99.90;;;;;;5173192;23;20226;-87
2021/10/24 00:05:21;;;;;;;5.00;1.93;;;12.50;99.90;;;;;;5006521;28;20210;-87
2021/10/24 00:07:53;;;;;;;4.03;2.10;;;12.40;99.90;;;;;;5013211;28;20202;-86
2021/10/24 00:10:24;;;;;;;6.43;2.80;;;12.50;99.90;;;;;;5012651;28;20835;-86
2021/10/24 00:12:55;;;;;;;6.43;2.80;;;12.40;99.90;;;;;;5016957;28;20187;-86
2021/10/24 00:15:26;;;;;;;6.60;3.50;;;12.40;99.90;;;;;;5011878;28;20254;-86
2021/10/24 00:18:00;;;;;;;4.60;2.73;;;12.40;99.90;;;;;;4986457;28;20218;-86
2021/10/24 00:20:32;;;;;;;2.63;2.30;;;12.40;99.90;;;;;;4983329;28;20210;-85
2021/10/24 00:23:05;;;;;;;5.27;2.33;;;12.40;99.90;;;;;;5004535;28;20241;-86
2021/10/24 00:25:36;;;;;;;2.90;1.83;;;12.40;99.90;;;;;;4998873;28;20218;-86
2021/10/24 00:28:08;;;;;;;5.67;1.90;;;12.30;99.90;;;;;;4995373;28;20207;-86
2021/10/24 00:30:51;;;;;;;4.27;1.90;;;12.30;99.90;;;;;;5042572;23;20302;-85
2021/10/24 00:33:25;;;;;;;3.20;1.90;;;12.30;99.90;;;;;;5020718;28;20183;-85
2021/10/24 00:36:11;;;;;;;2.30;1.90;;;12.20;99.90;;;;;;5001915;28;20235;-86
2021/10/24 00:38:44;;;;;;;3.03;2.00;;;12.30;99.90;;;;;;4988173;28;20246;-86
2021/10/24 00:41:19;;;;;;;2.70;1.40;;;12.30;99.90;;;;;;5002517;28;20234;-86
2021/10/24 00:43:50;;;;;;;3.17;1.83;;;12.20;99.90;;;;;;5002772;28;20213;-87
2021/10/24 00:46:22;;;;;;;3.93;1.80;;;12.20;99.90;;;;;;5001741;28;20264;-86
2021/10/24 00:49:04;;;;;;;2.90;1.77;;;12.20;99.90;;;;;;5010735;28;20222;-86
2021/10/24 00:51:36;;;;;;;1.63;1.47;;;12.20;99.90;;;;;;5005033;28;20201;-86
2021/10/24 00:54:09;;;;;;;2.63;1.70;;;12.10;99.90;;;;;;5004242;28;20206;-87
2021/10/24 00:56:45;;;;;;;3.63;1.50;;;12.10;99.90;;;;;;5011153;28;20296;-86
2021/10/24 00:59:17;;;;;;;2.73;1.40;;;12.10;99.90;;;;;;5012951;28;20215;-89
2021/10/24 01:01:50;;;;;;;1.80;1.40;;;12.10;99.90;;;;;;5011601;28;20199;-91
2021/10/24 01:04:24;;;;;;;2.13;1.30;;;12.20;99.90;;;;;;5016217;28;20198;-91
2021/10/24 01:07:01;;;;;;;3.47;1.07;;;12.10;99.90;;;;;;4994087;28;20213;-90
2021/10/24 01:09:35;;;;;;;1.40;1.20;;;12.10;99.90;;;;;;5015636;28;20250;-91
2021/10/24 01:12:08;;;;;;;2.30;1.57;;;12.10;99.90;;;;;;4991185;28;20238;-90
2021/10/24 01:14:40;;;;;;;1.47;1.10;;;12.10;99.90;;;;;;4668106;28;9999770;-92
2021/10/24 01:17:12;;;;;;;3.50;1.60;;;12.10;99.90;;;;;;5013406;28;20210;-90
2021/10/24 01:19:46;;;;;;;2.33;1.50;;;12.10;99.90;;;;;;4997020;28;20198;-88
2021/10/24 01:22:24;;;;;;;2.27;1.20;;;12.20;99.90;;;;;;5009627;28;20213;-88
2021/10/24 01:24:56;;;;;;;3.50;1.47;;;12.10;99.90;;;;;;5004750;28;20265;-94
2021/10/24 01:27:27;;;;;;;3.53;1.80;;;12.10;99.90;;;;;;5009904;28;20198;-90
2021/10/24 01:30:02;;;;;;;2.33;2.13;;;12.00;99.90;;;;;;5017079;28;20198;-90
2021/10/24 01:32:34;;;;;;;2.40;1.90;;;12.00;99.90;;;;;;5018424;28;20229;-91
2021/10/24 01:35:06;;;;;;;2.77;2.40;;;12.00;99.90;;;;;;4999618;28;20253;-92
2021/10/24 01:37:42;;;;;;;3.93;2.07;;;12.00;99.90;;;;;;5011392;28;20188;-90
2021/10/24 01:40:17;;;;;;;3.73;2.53;;;12.10;99.90;;;;;;5011540;28;20206;-91
2021/10/24 01:42:50;;;;;;;2.83;2.53;;;12.00;99.90;;;;;;5016775;28;20240;-90
2021/10/24 01:45:23;;;;;;;3.53;2.83;;;12.00;99.90;;;;;;5015825;28;20202;-90
2021/10/24 01:47:54;;;;;;;2.80;2.23;;;12.00;99.90;;;;;;5009184;28;20277;-91
2021/10/24 01:50:26;;;;;;;3.93;3.13;;;12.00;99.90;;;;;;5006180;28;20215;-90
2021/10/24 01:53:01;;;;;;;3.30;3.00;;;12.00;99.90;;;;;;5012828;28;20640;-92
2021/10/24 01:55:33;;;;;;;3.13;2.37;;;12.00;99.90;;;;;;5007249;28;20265;-92
2021/10/24 01:58:05;;;;;;;5.73;3.00;;;12.00;99.90;;;;;;4993292;28;20206;-90
2021/10/24 02:00:37;;;;;;;6.93;4.57;;;12.00;99.90;;;;;;5009407;28;20211;-91
2021/10/24 02:03:08;;;;;;;14.30;3.97;;;12.00;99.90;;;;;;5015372;28;20209;-91
2021/10/24 02:05:40;;;;;;;5.70;2.87;;;12.00;99.90;;;;;;5017407;28;20194;-92
2021/10/24 02:08:14;;;;;;;7.60;3.40;;;11.90;99.90;;;;;;5011373;28;20274;-90
2021/10/24 02:10:46;;;;;;;5.50;3.23;;;11.80;99.90;;;;;;5011006;28;20229;-89
2021/10/24 02:13:18;;;;;;;5.20;3.00;;;11.80;99.90;;;;;;5005268;28;20210;-90
2021/10/24 02:15:51;;;;;;;9.00;4.90;;;11.80;99.90;;;;;;5012807;28;20241;-89
2021/10/24 02:18:23;;;;;;;10.17;6.70;;;11.80;99.90;;;;;;5015153;28;20229;-89
2021/10/24 02:20:55;;;;;;;10.47;6.10;;;11.70;99.90;;;;;;5018203;28;20209;-89
2021/10/24 02:23:31;;;;;;;6.20;4.57;;;11.70;99.90;;;;;;5013111;28;20199;-93
2021/10/24 02:26:03;;;;;;;6.67;3.90;;;11.70;99.90;;;;;;4993825;28;20205;-91
2021/10/24 02:28:35;;;;;;;8.70;3.67;;;11.70;99.90;;;;;;5013896;28;20206;-92
2021/10/24 02:33:40;;;;;;;4.53;2.80;;;11.70;99.90;;;;;;5049675;28;20216;-92
2021/10/24 02:36:19;;;;;;;5.20;4.37;;;11.60;99.90;;;;;;5049442;28;20228;-91
2021/10/24 02:41:53;;;;;;;6.53;3.97;;;11.70;99.90;;;;;;5035472;28;20205;-92
2021/10/24 02:44:25;;;;;;;7.10;4.80;;;11.60;99.90;;;;;;5056235;28;20216;-92
2021/10/24 02:46:58;;;;;;;10.30;6.17;;;11.70;99.90;;;;;;5020371;28;20194;-92
2021/10/24 02:49:30;;;;;;;11.37;5.10;;;11.60;99.90;;;;;;5075802;23;20322;-91
2021/10/24 02:52:03;;;;;;;7.73;5.30;;;11.60;99.90;;;;;;4980017;28;20222;-94
2021/10/24 02:54:39;;;;;;;7.47;5.23;;;11.60;99.90;;;;;;4992889;28;20207;-92
2021/10/24 03:02:27;;;;;;;12.30;7.10;;;11.40;99.90;;;;;;5029247;28;20210;-91
2021/10/24 03:04:59;;;;;;;10.73;6.57;;;11.40;99.90;;;;;;5009774;28;20221;-92
2021/10/24 03:07:30;;;;;;;7.00;4.73;;;11.40;99.90;;;;;;5028596;28;20217;-91
2021/10/24 03:10:06;;;;;;;8.13;5.93;;;11.40;99.90;;;;;;5028091;28;20212;-91
2021/10/24 03:12:42;;;;;;;10.80;5.67;;;11.40;99.90;;;;;;5031820;28;20241;-91
2021/10/24 03:15:14;;;;;;;17.20;11.10;;;11.40;99.90;;;;;;4998274;28;20274;-89
2021/10/24 03:17:47;;;;;;;12.70;7.63;;;11.40;99.90;;;;;;5011302;28;20202;-89
2021/10/24 03:20:19;;;;;;;10.57;6.50;;;11.40;99.90;;;;;;4999805;28;20206;-88
2021/10/24 03:22:53;;;;;;;7.53;5.33;;;11.40;99.90;;;;;;5009959;28;20218;-89
2021/10/24 03:25:29;;;;;;;8.13;5.00;;;11.40;99.90;;;;;;5012023;28;20643;-88
2021/10/24 03:28:00;;;;;;;5.90;4.93;;;11.40;99.90;;;;;;5014575;28;20205;-88
2021/10/24 03:30:31;;;;;;;7.13;5.03;;;11.40;99.90;;;;;;5030603;28;20193;-88
2021/10/24 03:33:02;;;;;;;6.93;5.30;;;11.30;99.90;;;;;;5030709;28;20279;-88
2021/10/24 03:35:34;;;;;;;6.03;5.07;;;11.30;99.90;;;;;;5026100;28;20197;-89
2021/10/24 03:38:05;;;;;;;7.47;4.93;;;11.20;99.90;;;;;;5029338;28;20202;-88
2021/10/24 03:40:43;;;;;;;7.77;6.03;;;11.20;99.90;;;;;;5034856;28;20215;-88
2021/10/24 03:43:15;;;;;;;6.93;6.20;;;11.20;99.90;;;;;;5045158;28;20248;-88
2021/10/24 03:45:47;;;;;;;7.73;6.00;;;11.20;99.90;;;;;;5018675;28;20310;-88
2021/10/24 03:48:18;;;;;;;6.87;5.40;;;11.20;99.90;;;;;;5039786;28;20246;-88
2021/10/24 03:50:50;;;;;;;7.73;5.47;;;11.20;99.90;;;;;;5027031;28;20210;-88
2021/10/24 03:53:22;;;;;;;8.23;6.00;;;11.20;99.90;;;;;;5020086;28;20308;-88
2021/10/24 03:55:56;;;;;;;6.60;5.70;;;11.00;99.90;;;;;;5006156;28;20194;-89
2021/10/24 03:58:32;;;;;;;8.37;6.10;;;11.00;99.90;;;;;;5011904;28;20186;-89
2021/10/24 04:01:16;;;;;;;7.73;6.00;;;10.90;99.90;;;;;;5023793;28;20212;-88
2021/10/24 04:03:47;;;;;;;10.77;6.27;;;10.90;99.90;;;;;;5030693;28;20265;-88
2021/10/24 04:06:19;;;;;;;9.17;7.20;;;10.90;99.90;;;;;;5036479;28;20201;-89
2021/10/24 04:08:51;;;;;;;9.87;6.80;;;10.90;99.90;;;;;;5019871;28;20213;-89
2021/10/24 04:11:26;;;;;;;11.37;7.37;;;10.90;99.90;;;;;;5037991;28;20193;-89
2021/10/24 04:13:57;;;;;;;12.37;6.77;;;10.80;99.90;;;;;;5018429;28;20205;-89
2021/10/24 04:16:29;;;;;;;11.63;6.63;;;10.80;99.90;;;;;;5029406;28;20225;-89
2021/10/24 04:19:02;;;;;;;9.40;5.60;;;10.80;99.90;;;;;;5037667;28;20198;-89
2021/10/24 04:21:33;;;;;;;12.17;6.47;;;10.70;99.90;;;;;;5037565;28;20201;-89
2021/10/24 04:24:06;;;;;;;7.50;5.60;;;10.70;99.90;;;;;;5027189;28;20572;-88
2021/10/24 04:26:44;;;;;;;7.63;5.63;;;10.60;99.90;;;;;;5028802;28;20209;-88
2021/10/24 04:29:17;;;;;;;6.43;5.17;;;10.50;99.90;;;;;;5030616;28;20240;-88
2021/10/24 04:31:49;;;;;;;7.90;4.83;;;10.40;99.90;;;;;;5031731;28;20668;-88
2021/10/24 04:34:21;;;;;;;8.17;4.70;;;10.30;99.90;;;;;;5019668;28;20218;-88
2021/10/24 04:36:54;;;;;;;9.50;4.23;;;10.30;99.90;;;;;;5011219;28;20266;-88
2021/10/24 04:39:27;;;;;;;6.13;4.00;;;10.30;99.90;;;;;;5012514;28;20210;-88
2021/10/24 04:42:07;;;;;;;5.10;3.57;;;10.20;99.90;;;;;;5026182;28;20202;-87
2021/10/24 04:44:42;;;;;;;6.87;3.43;;;10.10;99.90;;;;;;5033733;28;20221;-87
2021/10/24 04:47:26;;;;;;;6.53;3.67;;;10.10;99.90;;;;;;5032676;28;20209;-88
2021/10/24 04:49:58;;;;;;;6.73;3.83;;;9.90;99.90;;;;;;5030063;28;20258;-88
2021/10/24 04:52:30;;;;;;;8.03;3.93;;;9.90;99.90;;;;;;5033989;28;20229;-88
2021/10/24 04:55:01;;;;;;;3.90;3.53;;;10.00;99.90;;;;;;5015248;28;20213;-88
2021/10/24 05:00:19;;;;;;;7.57;3.93;;;10.10;99.90;;;;;;5171699;23;20264;-88
2021/10/24 05:02:52;;;;;;;8.43;4.20;;;10.10;99.90;;;;;;5017497;28;20209;-88
2021/10/24 05:05:31;;;;;;;5.03;3.97;;;10.20;99.90;;;;;;5019091;28;20273;-88
2021/10/24 05:08:02;;;;;;;4.23;3.80;;;10.20;99.90;;;;;;5015790;28;20220;-88
2021/10/24 05:10:35;;;;;;;7.77;3.47;;;10.30;99.90;;;;;;5015001;28;20272;-88
2021/10/24 05:13:06;;;;;;;2.77;2.37;;;10.30;99.90;;;;;;5002245;28;20206;-88
2021/10/24 05:15:39;;;;;;;5.90;2.40;;;10.30;99.90;;;;;;4983896;28;20238;-88
2021/10/24 05:18:10;;;;;;;3.47;2.37;;;10.30;99.90;;;;;;5000132;28;20280;-88
2021/10/24 05:20:41;;;;;;;3.03;2.10;;;10.40;99.90;;;;;;5000808;28;20301;-88
2021/10/24 05:23:14;;;;;;;3.90;2.10;;;10.40;99.90;;;;;;4983214;28;20238;-88
2021/10/24 05:26:04;;;;;;;3.00;2.27;;;10.40;99.90;;;;;;4982702;28;20207;-88
2021/10/24 05:28:37;;;;;;;2.10;1.70;;;10.30;99.90;;;;;;4994048;28;20227;-87
2021/10/24 05:31:12;;;;;;;2.60;2.30;;;10.30;99.90;;;;;;5009599;28;20210;-88
2021/10/24 05:33:43;;;;;;;4.87;2.27;;;10.30;99.90;;;;;;5015150;28;20262;-87
2021/10/24 05:36:15;;;;;;;3.43;1.70;;;10.30;99.90;;;;;;4995496;28;20207;-88
2021/10/24 05:38:47;;;;;;;1.90;1.60;;;10.20;99.90;;;;;;4980492;28;20286;-88
2021/10/24 05:41:20;;;;;;;3.27;1.60;;;10.10;99.90;;;;;;5010405;28;20228;-87
2021/10/24 05:43:51;;;;;;;3.20;1.60;;;10.10;99.90;;;;;;5036003;28;20197;-87
2021/10/24 05:46:25;;;;;;;3.63;1.87;;;10.10;99.90;;;;;;5003709;28;20242;-88
2021/10/24 05:48:56;;;;;;;4.00;1.70;;;10.10;99.90;;;;;;5001114;28;20238;-87
2021/10/24 05:51:29;;;;;;;2.83;1.80;;;10.00;99.90;;;;;;5013678;28;20213;-87
2021/10/24 05:54:02;;;;;;;2.93;1.90;;;10.00;99.90;;;;;;5008669;28;20214;-87
2021/10/24 05:56:33;;;;;;;2.40;1.43;;;9.90;99.90;;;;;;4982753;28;20213;-88
2021/10/24 05:59:05;;;;;;;2.87;1.70;;;9.80;99.90;;;;;;5000293;28;20245;-88
2021/10/24 06:01:38;;;;;;;3.73;1.50;;;9.80;99.90;;;;;;5002642;28;20206;-87
2021/10/24 06:04:11;;;;;;;2.87;1.60;;;9.70;99.90;;;;;;5000671;28;20268;-88
2021/10/24 06:06:44;;;;;;;1.67;1.57;;;9.70;99.90;;;;;;5050438;23;20240;-89
2021/10/24 06:09:16;;;;;;;3.33;1.63;;;9.70;99.90;;;;;;5022059;28;20618;-88
2021/10/24 06:11:55;;;;;;;2.73;1.60;;;9.60;99.90;;;;;;5019128;28;20203;-89
2021/10/24 06:14:28;;;;;;;3.63;1.77;;;9.50;99.90;;;;;;5009633;28;20213;-89
2021/10/24 06:17:01;;;;;;;2.67;1.30;;;9.60;99.90;;;;;;5018439;28;20248;-89
2021/10/24 06:19:35;;;;;;;2.30;1.00;;;9.60;99.90;;;;;;5016470;28;20236;-90
2021/10/24 06:22:07;;;;;;;3.53;1.50;;;9.60;99.90;;;;;;5017291;28;20293;-89
2021/10/24 06:24:38;;;;;;;3.10;1.60;;;9.60;99.90;;;;;;5018858;28;20236;-89
2021/10/24 06:27:11;;;;;;;1.93;1.70;;;9.70;99.90;;;;;;5018512;28;20656;-88
2021/10/24 06:29:42;;;;;;;5.47;1.63;;;9.60;99.90;;;;;;5018446;28;20233;-87
2021/10/24 06:32:20;;;;;;;5.60;1.60;;;9.70;99.90;;;;;;5009602;28;20210;-87
2021/10/24 06:34:52;;;;;;;2.97;1.93;;;9.70;99.90;;;;;;4999388;28;20198;-88
2021/10/24 06:37:24;;;;;;;2.20;1.60;;;9.70;99.90;;;;;;4986220;28;20233;-87
2021/10/24 06:39:55;;;;;;;3.97;1.47;;;9.90;99.90;;;;;;5018300;28;20269;-87
2021/10/24 06:42:27;;;;;;;5.13;1.57;;;9.90;99.90;;;;;;5018277;28;20248;-87
2021/10/24 06:45:00;;;;;;;1.50;1.20;;;9.90;99.90;;;;;;5010956;28;20329;-87
2021/10/24 06:47:33;;;;;;;2.30;1.60;;;9.90;99.90;;;;;;5006591;28;20235;-87
2021/10/24 06:50:06;;;;;;;2.50;1.50;;;9.90;99.90;;;;;;5018083;28;20213;-86
2021/10/24 06:52:38;;;;;;;2.83;1.47;;;9.90;99.90;;;;;;5017050;28;20638;-87
2021/10/24 06:55:11;;;;;;;1.67;1.30;;;9.90;99.90;;;;;;5015910;28;20210;-88
2021/10/24 06:57:52;;;;;;;1.30;1.20;;;10.00;99.90;;;;;;5000382;28;20261;-87
2021/10/24 07:00:25;;;;;;;1.63;1.30;;;9.90;99.90;;;;;;5017590;28;20209;-87
2021/10/24 07:02:59;;;;;;;4.77;1.20;;;9.90;99.90;;;;;;5018011;28;20280;-88
2021/10/24 07:05:30;;;;;;;3.10;1.10;;;9.80;99.90;;;;;;5018433;28;20286;-87
2021/10/24 07:08:02;;;;;;;4.70;1.50;;;9.70;99.90;;;;;;5013455;28;20195;-88
2021/10/24 07:10:40;;;;;;;3.50;1.70;;;9.70;99.90;;;;;;4984139;28;20216;-87
2021/10/24 07:13:11;;;;;;;3.57;1.40;;;9.60;99.90;;;;;;5002672;28;20207;-87
2021/10/24 07:15:42;;;;;;;1.83;1.43;;;9.50;99.90;;;;;;5014852;28;20238;-88
2021/10/24 07:18:15;;;;;;;1.90;1.00;;;9.50;99.90;;;;;;5016343;28;20245;-88
2021/10/24 07:20:46;;;;;;;2.27;1.30;;;9.60;99.90;;;;;;5016069;28;20198;-87
2021/10/24 07:23:19;;;;;;;1.47;1.10;;;9.60;99.90;;;;;;4997923;28;20268;-88
2021/10/24 07:25:50;;;;;;;1.77;1.40;;;9.60;99.90;;;;;;4998263;28;20248;-88
2021/10/24 07:28:23;;;;;;;2.00;1.20;;;9.50;99.90;;;;;;5000432;28;20263;-88
2021/10/24 07:31:09;;;;;;;3.43;1.20;;;9.50;99.90;;;;;;5003137;28;20209;-87
2021/10/24 07:33:42;;;;;;;2.00;1.10;;;9.60;99.90;;;;;;5013340;28;20676;-87
2021/10/24 07:36:15;;;;;;;2.50;1.50;;;9.60;99.90;;;;;;5001317;28;20259;-86
2021/10/24 07:38:46;;;;;;;3.23;1.27;;;9.60;99.90;;;;;;4998226;28;20774;-88
2021/10/24 07:41:17;;;;;;;1.30;0.97;;;9.60;99.90;;;;;;5016139;28;20636;-86
2021/10/24 07:43:50;;;;;;;2.77;1.10;;;9.60;99.90;;;;;;5031111;28;20287;-88
2021/10/24 07:46:22;;;;;;;3.53;1.30;;;9.60;99.90;;;;;;5015504;28;20660;-87
2021/10/24 07:48:58;;;;;;;2.77;1.20;;;9.60;99.90;;;;;;4989061;28;20210;-88
2021/10/24 07:51:29;;;;;;;2.37;1.20;;;9.60;99.90;;;;;;4995982;28;20681;-87
2021/10/24 07:54:01;;;;;;;1.10;0.90;;;9.60;99.90;;;;;;4984090;28;20203;-87
2021/10/24 07:56:33;;;;;;;3.43;0.97;;;9.60;99.90;;;;;;4978917;28;20207;-87
2021/10/24 07:59:05;;;;;;;2.57;1.03;;;9.60;99.90;;;;;;4997732;28;20268;-87
2021/10/24 08:01:37;;;;;;;1.87;1.07;;;9.60;99.90;;;;;;5007517;28;20237;-86
2021/10/24 08:04:12;;;;;;;3.07;1.20;;;9.60;99.90;;;;;;5017527;28;20398;-88
2021/10/24 08:06:47;;;;;;;1.80;0.70;;;9.70;99.90;;;;;;4988863;28;20270;-87
2021/10/24 08:09:19;;;;;;;1.13;0.70;;;9.70;99.90;;;;;;4997821;28;20835;-88
2021/10/24 08:11:51;;;;;;;2.10;0.97;;;9.60;99.90;;;;;;4979813;28;20218;-87
2021/10/24 08:14:23;;;;;;;2.57;0.70;;;9.70;99.90;;;;;;4976893;28;20214;-87
2021/10/24 08:16:54;;;;;;;0.93;0.60;;;9.70;99.90;;;;;;4976687;28;20265;-88
2021/10/24 08:19:35;;;;;;;0.83;0.70;;;9.70;99.90;;;;;;4980658;28;20238;-88
2021/10/24 08:22:07;;;;;;;1.80;0.90;;;9.70;99.90;;;;;;4984704;28;20207;-88
2021/10/24 08:24:39;;;;;;;1.73;0.70;;;9.70;99.90;;;;;;5026026;28;20856;-88
2021/10/24 08:27:14;;;;;;;1.33;0.70;;;9.70;99.90;;;;;;5021263;28;20202;-88
2021/10/24 08:29:47;;;;;;;2.63;0.90;;;9.80;99.90;;;;;;4997136;28;20226;-88
2021/10/24 08:32:18;;;;;;;0.97;0.60;;;9.80;99.90;;;;;;4993666;28;20313;-87
2021/10/24 08:34:56;;;;;;;1.17;0.70;;;10.00;99.90;;;;;;4977061;28;20211;-88
2021/10/24 08:37:28;;;;;;;0.67;0.57;;;10.00;99.90;;;;;;4976635;28;20246;-88
2021/10/24 08:40:00;;;;;;;1.90;0.67;;;10.00;99.90;;;;;;4998259;28;20583;-86
2021/10/24 08:42:31;;;;;;;1.63;0.80;;;10.00;99.90;;;;;;4986249;28;20207;-88
2021/10/24 08:45:04;;;;;;;1.23;0.53;;;10.00;99.90;;;;;;4982257;28;20218;-88
2021/10/24 08:47:35;;;;;;;0.83;0.70;;;10.10;99.90;;;;;;4984274;28;20234;-88
2021/10/24 08:50:11;;;;;;;1.10;0.90;;;10.20;99.90;;;;;;4988831;28;20215;-88
2021/10/24 08:52:45;;;;;;;1.97;0.90;;;10.20;99.90;;;;;;5001075;28;20241;-89
2021/10/24 08:55:17;;;;;;;1.40;0.60;;;10.10;99.90;;;;;;5000785;28;20268;-87
2021/10/24 08:57:49;;;;;;;2.20;0.70;;;10.20;99.90;;;;;;5000954;28;20214;-88
2021/10/24 09:00:43;;;;;;;1.27;0.60;;;10.20;99.90;;;;;;5002734;28;20218;-87
2021/10/24 09:03:15;;;;;;;1.13;0.80;;;10.30;99.90;;;;;;4997426;28;20210;-86
2021/10/24 09:05:50;;;;;;;1.17;0.67;;;10.40;99.90;;;;;;4980707;28;20223;-87
2021/10/24 09:08:22;;;;;;;1.50;0.60;;;10.40;99.90;;;;;;4990663;28;20213;-87
2021/10/24 09:10:56;;;;;;;0.70;0.53;;;10.40;99.90;;;;;;4984248;28;20206;-87
2021/10/24 09:13:29;;;;;;;1.87;0.63;;;10.40;99.90;;;;;;5010381;28;20217;-88
2021/10/24 09:16:04;;;;;;;1.10;0.60;;;10.40;99.90;;;;;;5019382;28;20214;-88
2021/10/24 09:18:38;;;;;;;1.70;0.67;;;10.40;99.90;;;;;;4980351;28;20298;-88
2021/10/24 09:21:26;;;;;;;0.70;0.70;;;10.50;99.90;;;;;;4992538;28;20213;-87
2021/10/24 09:24:14;;;;;;;1.20;0.80;;;10.50;99.90;;;;;;4986659;28;20218;-87
2021/10/24 09:26:46;;;;;;;1.67;0.60;;;10.50;99.90;;;;;;5005472;28;20327;-87
2021/10/24 09:29:18;;;;;;;0.50;0.40;;;10.50;99.90;;;;;;5015964;28;20205;-86
2021/10/24 09:31:54;;;;;;;1.50;0.50;;;10.50;99.90;;;;;;5002791;28;20211;-87
2021/10/24 09:34:26;;;;;;;1.40;0.60;;;10.50;99.90;;;;;;4999898;28;20209;-86
2021/10/24 09:37:02;;;;;;;1.83;0.67;;;10.50;99.90;;;;;;4996272;28;20203;-86
2021/10/24 09:39:35;;;;;;;0.97;0.70;;;10.50;99.90;;;;;;4967266;28;20360;-86
2021/10/24 09:42:17;;;;;;;0.80;0.50;;;10.60;99.90;;;;;;4998937;28;20202;-87
2021/10/24 09:45:06;;;;;;;1.00;0.60;;;10.60;99.90;;;;;;4998238;28;20280;-87
2021/10/24 09:47:38;;;;;;;2.40;0.60;;;10.60;99.90;;;;;;4997662;28;20237;-86
2021/10/24 09:50:11;;;;;;;0.73;0.63;;;10.60;99.90;;;;;;4997529;28;20210;-87
2021/10/24 09:52:44;;;;;;;1.27;0.60;;;10.60;99.90;;;;;;4997100;28;20309;-87
2021/10/24 09:55:19;;;;;;;0.63;0.50;;;10.70;99.90;;;;;;4986931;28;20247;-88
2021/10/24 09:57:50;;;;;;;1.90;0.70;;;10.80;99.90;;;;;;4979734;28;20273;-87
2021/10/24 10:00:22;;;;;;;0.83;0.83;;;10.90;99.90;;;;;;4976998;28;20294;-88
2021/10/24 10:02:54;;;;;;;1.13;0.57;;;11.00;99.90;;;;;;4978125;28;20218;-88
2021/10/24 10:05:26;;;;;;;1.93;0.60;;;11.10;99.90;;;;;;4978073;28;20211;-88
2021/10/24 10:08:01;;;;;;;0.70;0.60;;;11.10;99.90;;;;;;4981653;28;20665;-88
2021/10/24 10:10:34;;;;;;;1.13;0.50;;;11.10;99.90;;;;;;4998992;28;20253;-86
2021/10/24 10:13:11;;;;;;;1.13;0.40;;;11.20;99.90;;;;;;4985283;28;22001;-88
2021/10/24 10:15:45;;;;;;;0.70;0.60;;;11.30;99.90;;;;;;4983034;28;20937;-88
2021/10/24 10:18:16;;;;;;;1.83;0.50;;;11.30;99.90;;;;;;4980276;28;20249;-87
2021/10/24 10:20:49;;;;;;;0.90;0.50;;;11.50;99.90;;;;;;4996619;28;20296;-87
2021/10/24 10:23:38;;;;;;;0.97;0.57;;;11.50;99.90;;;;;;4996370;28;20259;-88
2021/10/24 10:26:38;;;;;;;0.50;0.40;;;11.60;99.90;;;;;;4978477;28;20206;-87
2021/10/24 10:29:12;;;;;;;0.47;0.47;;;11.60;99.90;;;;;;4994974;28;20234;-88
2021/10/24 10:32:04;;;;;;;2.13;0.47;;;11.80;99.90;;;;;;4996644;28;20210;-87
2021/10/24 10:35:05;;;;;;;2.00;0.70;;;11.70;99.90;;;;;;4996372;28;20856;-87
2021/10/24 10:37:50;;;;;;;0.37;0.33;;;11.80;99.90;;;;;;4978948;28;20210;-87
2021/10/24 10:40:26;;;;;;;0.67;0.53;;;11.80;99.90;;;;;;4996876;28;20282;-87
2021/10/24 10:43:03;;;;;;;0.80;0.60;;;11.90;99.90;;;;;;4997002;28;20230;-87
2021/10/24 10:45:55;;;;;;;2.07;0.50;;;11.90;99.90;;;;;;4988426;28;20214;-87
2021/10/24 10:48:42;;;;;;;0.80;0.40;;;11.90;99.90;;;;;;4977977;28;20219;-87
2021/10/24 10:51:23;;;;;;;0.87;0.50;;;11.90;99.90;;;;;;4985811;28;20234;-87
2021/10/24 10:54:03;;;;;;;0.97;0.40;;;12.00;99.90;;;;;;4995773;28;20305;-87
2021/10/24 10:56:56;;;;;;;1.97;0.50;;;12.10;99.90;;;;;;4996014;28;20595;-87
2021/10/24 10:59:38;;;;;;;1.80;0.50;;;12.20;99.90;;;;;;4996228;28;20244;-87
2021/10/24 11:02:26;;;;;;;1.70;0.40;;;12.30;99.90;;;;;;4997536;28;20233;-87
2021/10/24 11:05:00;;;;;;;0.30;0.30;;;12.40;99.90;;;;;;4991791;28;20206;-88
2021/10/24 11:07:39;;;;;;;0.37;0.37;;;12.40;99.90;;;;;;4999861;28;20691;-88
2021/10/24 11:10:17;;;;;;;1.00;0.40;;;12.50;99.90;;;;;;4998798;28;20214;-87
2021/10/24 11:12:50;;;;;;;0.40;0.40;;;12.60;99.90;;;;;;4987241;28;20626;-88
2021/10/24 11:15:29;;;;;;;0.40;0.40;;;12.90;99.90;;;;;;4980137;28;20211;-87
2021/10/24 11:18:05;;;;;;;0.33;0.33;;;12.90;99.90;;;;;;4981908;28;20207;-87
2021/10/24 11:20:47;;;;;;;2.00;0.50;;;12.90;99.90;;;;;;5000631;28;20230;-88
2021/10/24 11:23:21;;;;;;;0.97;0.40;;;12.90;99.90;;;;;;4997220;28;20233;-88
2021/10/24 11:25:54;;;;;;;1.57;0.50;;;12.70;99.90;;;;;;5012635;28;20182;-87
2021/10/24 11:28:30;;;;;;;0.40;0.40;;;12.60;99.90;;;;;;5000097;28;20206;-87
2021/10/24 11:31:06;;;;;;;0.90;0.30;;;12.50;99.90;;;;;;4999239;28;20288;-87
2021/10/24 11:33:45;;;;;;;0.40;0.40;;;12.40;99.90;;;;;;4998536;28;20202;-87
2021/10/24 11:36:22;;;;;;;0.40;0.40;;;12.30;99.90;;;;;;4995326;28;20206;-87
2021/10/24 11:39:01;;;;;;;1.57;0.53;;;12.20;99.90;;;;;;4985779;28;20206;-87
2021/10/24 11:41:35;;;;;;;1.13;0.37;;;12.20;99.90;;;;;;4976852;28;20340;-87
2021/10/24 11:44:12;;;;;;;0.73;0.40;;;12.40;99.90;;;;;;4989544;28;20258;-85
2021/10/24 11:46:44;;;;;;;0.33;0.30;;;12.50;99.90;;;;;;4998991;28;20214;-87
2021/10/24 11:49:15;;;;;;;0.60;0.50;;;12.60;99.90;;;;;;5032292;28;20206;-87
2021/10/24 11:51:55;;;;;;;0.40;0.30;;;12.60;99.90;;;;;;5002756;28;20210;-87
2021/10/24 11:54:31;;;;;;;0.80;0.40;;;12.70;99.90;;;;;;5004769;28;20206;-87
2021/10/24 11:57:29;;;;;;;1.73;0.50;;;12.70;99.90;;;;;;4996336;28;20396;-87
2021/10/24 12:00:18;;;;;;;1.80;0.30;;;12.70;99.90;;;;;;4994993;28;20304;-87
2021/10/24 12:03:02;;;;;;;1.33;0.50;;;12.80;99.90;;;;;;4997292;28;20234;-88
2021/10/24 12:05:35;;;;;;;0.20;0.20;;;12.70;99.90;;;;;;4985072;28;20269;-88
2021/10/24 12:08:07;;;;;;;0.30;0.30;;;12.80;99.90;;;;;;4975929;28;20219;-88
2021/10/24 12:10:38;;;;;;;0.20;0.20;;;12.80;99.90;;;;;;4958803;28;20211;-87
2021/10/24 12:13:30;;;;;;;0.77;0.40;;;12.80;99.90;;;;;;4976407;28;20245;-88
2021/10/24 12:16:05;;;;;;;0.30;0.30;;;12.80;99.90;;;;;;4975361;28;20293;-88
2021/10/24 12:18:39;;;;;;;0.30;0.30;;;12.70;99.90;;;;;;4975980;28;20210;-87
2021/10/24 12:21:10;;;;;;;0.33;0.30;;;12.70;99.90;;;;;;4975672;28;20535;-87
2021/10/24 12:23:41;;;;;;;0.70;0.30;;;12.60;99.90;;;;;;4988354;28;20238;-87
2021/10/24 12:26:13;;;;;;;0.47;0.30;;;12.70;99.90;;;;;;4998404;28;20217;-88
2021/10/24 12:28:45;;;;;;;0.37;0.37;;;12.70;99.90;;;;;;4999286;28;20210;-88
2021/10/24 12:31:24;;;;;;;0.23;0.23;;;12.70;99.90;;;;;;4995028;28;20204;-87
2021/10/24 12:33:55;;;;;;;0.50;0.50;;;12.80;99.90;;;;;;4980323;28;20217;-87
2021/10/24 12:36:35;;;;;;;1.00;0.50;;;12.90;99.90;;;;;;4961798;28;20203;-87
2021/10/24 12:39:08;;;;;;;0.40;0.30;;;13.00;99.90;;;;;;4978933;28;20250;-88
2021/10/24 12:41:41;;;;;;;2.10;0.40;;;13.00;99.90;;;;;;4995885;28;20262;-87
2021/10/24 12:44:14;;;;;;;0.40;0.30;;;13.00;99.90;;;;;;4999156;28;20245;-87
2021/10/24 12:46:48;;;;;;;0.20;0.20;;;13.10;99.90;;;;;;4997884;28;20241;-87
2021/10/24 12:49:21;;;;;;;0.53;0.40;;;13.10;99.90;;;;;;5005881;28;20202;-88
2021/10/24 12:51:53;;;;;;;0.50;0.50;;;13.10;99.90;;;;;;4998128;28;20269;-88
2021/10/24 12:54:30;;;;;;;0.67;0.40;;;13.20;99.90;;;;;;4999302;28;20214;-88
2021/10/24 12:57:01;;;;;;;1.40;0.20;;;13.20;99.90;;;;;;4981181;28;20239;-87
2021/10/24 12:59:32;;;;;;;0.30;0.30;;;13.10;99.90;;;;;;4979217;28;20207;-88
2021/10/24 13:02:11;;;;;;;3.40;0.37;;;13.10;99.90;;;;;;4978709;28;20283;-88
2021/10/24 13:04:43;;;;;;;2.80;0.20;;;13.00;99.90;;;;;;4979437;28;20215;-88
2021/10/24 13:07:15;;;;;;;0.73;0.40;;;13.10;99.90;;;;;;4987025;28;20245;-88
2021/10/24 13:09:46;;;;;;;0.47;0.40;;;13.20;99.90;;;;;;4998753;28;20750;-88
2021/10/24 13:12:17;;;;;;;0.67;0.30;;;13.10;99.90;;;;;;4976300;28;20242;-88
2021/10/24 13:14:49;;;;;;;0.20;0.20;;;13.10;99.90;;;;;;4961316;28;20207;-88
2021/10/24 13:17:22;;;;;;;0.70;0.30;;;13.00;99.90;;;;;;4997214;28;20230;-88
2021/10/24 13:19:55;;;;;;;0.47;0.40;;;12.90;99.90;;;;;;4997541;28;20214;-89
2021/10/24 13:25:15;;;;;;;0.50;0.30;;;12.90;99.90;;;;;;4987655;28;20692;-86
2021/10/24 13:27:46;;;;;;;0.43;0.30;;;12.90;99.90;;;;;;5003061;28;20206;-87
2021/10/24 13:30:17;;;;;;;0.20;0.20;;;12.90;99.90;;;;;;4997765;28;20230;-87
2021/10/24 13:32:53;;;;;;;0.30;0.30;;;13.00;99.90;;;;;;4997907;28;20213;-86
2021/10/24 13:35:24;;;;;;;1.00;0.30;;;13.00;99.90;;;;;;4997476;28;20343;-87
2021/10/24 13:37:56;;;;;;;0.20;0.20;;;13.00;99.90;;;;;;4998096;28;20234;-88
2021/10/24 13:40:27;;;;;;;0.67;0.30;;;13.10;99.90;;;;;;5010085;28;20205;-86